Terminal Aerodrome Forecast
Issued by NWS

Home | Current Version | Previous Version | Text Only | Print | Product List | Glossary On
Versions: 1 2 3 4 5 6 7 8 9 10 11 12 13 14 15 16 17 18 19 20 21 22 23
000
FTUS44 KLZK 031159
TAFHRO
TAF
KHRO 031159Z 0312/0412 VRB05KT P6SM BKN250
     FM031800 24006KT P6SM VCSH SCT040 BKN100 BKN250
     FM032000 23008KT 5SM -SHRA BR BKN035 OVC100
     FM040000 21006KT P6SM SCT050 BKN250
     FM041000 20004KT 6SM -SHRA BR BKN030 OVC120=

USA.gov is the U.S. government's official web portal to all federal, state and local government web resources and services.